Time;durP1;ratioP1;P1;durP2;ratioP2;P2;SDS_P1;SDS_P2;PMS_P1;PMS_P2;Temp;Humidity;BMP_temperature;BMP_pressure;BME280_temperature;BME280_humidity;BME280_pressure;Samples;Min_cycle;Max_cycle;Signal;HPM_P1;HPM_P2
2023/10/05 00:02:10;;;;;;;17.95;5.47;;;13.90;95.30;;;;;;5071168;28;20056;-68
2023/10/05 00:04:45;;;;;;;12.93;5.47;;;13.90;94.10;;;;;;5070592;28;20020;-69
2023/10/05 00:07:19;;;;;;;11.52;4.63;;;13.90;94.70;;;;;;5071131;28;20029;-68
2023/10/05 00:09:45;;;;;;;18.88;5.05;;;13.80;96.80;;;;;;5070483;28;20433;-68
2023/10/05 00:12:18;;;;;;;24.77;5.97;;;13.90;98.20;;;;;;5070724;28;20032;-68
2023/10/05 00:14:48;;;;;;;15.82;5.57;;;13.80;99.90;;;;;;5070676;28;20035;-68
2023/10/05 00:17:19;;;;;;;13.00;4.55;;;13.80;98.70;;;;;;5070276;28;20063;-68
2023/10/05 00:19:44;;;;;;;16.77;4.88;;;13.80;99.90;;;;;;5070615;28;20020;-68
2023/10/05 00:22:11;;;;;;;18.25;5.45;;;13.70;99.90;;;;;;5069554;28;20150;-68
2023/10/05 00:24:37;;;;;;;14.30;5.05;;;13.70;99.90;;;;;;5070124;28;20025;-68
2023/10/05 00:27:08;;;;;;;15.00;5.40;;;13.70;99.90;;;;;;5070686;28;20029;-68
2023/10/05 00:29:40;;;;;;;18.63;5.38;;;13.60;99.60;;;;;;5070349;28;20024;-68
2023/10/05 00:32:13;;;;;;;15.95;4.72;;;13.70;97.70;;;;;;5069962;28;20101;-68
2023/10/05 00:34:40;;;;;;;18.02;5.07;;;13.70;96.70;;;;;;5070732;28;20258;-68
2023/10/05 00:37:06;;;;;;;16.45;5.28;;;13.60;99.90;;;;;;5070121;28;20035;-76
2023/10/05 00:39:31;;;;;;;14.75;4.72;;;13.60;99.60;;;;;;5069939;28;20119;-68
2023/10/05 00:44:34;;;;;;;12.23;4.55;;;13.60;99.90;;;;;;5069647;28;20021;-68
2023/10/05 00:47:00;;;;;;;20.40;5.28;;;13.60;99.90;;;;;;5069727;28;20021;-68
2023/10/05 00:49:29;;;;;;;18.58;5.50;;;13.50;99.90;;;;;;5070254;28;20040;-68
2023/10/05 00:52:11;;;;;;;10.15;4.15;;;13.60;99.90;;;;;;5070129;28;20035;-68
2023/10/05 00:54:40;;;;;;;19.10;5.72;;;13.60;99.90;;;;;;5059492;28;20029;-68
2023/10/05 00:57:09;;;;;;;19.33;5.00;;;13.60;99.90;;;;;;5055840;28;20032;-68
2023/10/05 00:59:36;;;;;;;16.05;5.32;;;13.60;99.90;;;;;;5056844;28;20491;-68
2023/10/05 01:07:43;;;;;;;19.77;5.15;;;13.60;99.90;;;;;;5091078;28;20034;-68
2023/10/05 01:12:39;;;;;;;13.55;5.32;;;13.60;99.90;;;;;;5111983;27;20384;-68
2023/10/05 01:15:06;;;;;;;12.23;5.15;;;13.50;99.90;;;;;;5111309;28;20114;-69
2023/10/05 01:17:35;;;;;;;19.70;5.10;;;13.50;99.90;;;;;;5111744;28;20035;-68
2023/10/05 01:22:58;;;;;;;18.95;5.25;;;13.50;99.90;;;;;;5112015;27;20426;-68
2023/10/05 01:25:25;;;;;;;15.85;5.30;;;13.50;99.90;;;;;;5110861;28;20024;-68
2023/10/05 01:27:52;;;;;;;13.57;4.90;;;13.50;99.90;;;;;;5111815;28;20034;-68
2023/10/05 01:30:19;;;;;;;14.88;4.70;;;13.50;99.90;;;;;;5110987;28;20039;-68
2023/10/05 01:32:45;;;;;;;16.10;5.35;;;13.50;99.90;;;;;;5111299;28;20515;-68
2023/10/05 01:35:13;;;;;;;14.30;5.32;;;13.50;99.90;;;;;;5111815;28;20118;-69
2023/10/05 01:37:41;;;;;;;16.30;5.22;;;13.50;99.90;;;;;;5111835;28;20032;-68
2023/10/05 01:40:23;;;;;;;16.95;4.57;;;13.50;99.90;;;;;;5111558;28;20055;-68
2023/10/05 01:42:51;;;;;;;13.88;5.03;;;13.50;99.90;;;;;;5111405;28;20469;-68
2023/10/05 01:45:22;;;;;;;19.85;5.28;;;13.50;99.90;;;;;;5111373;28;20031;-68
2023/10/05 01:47:49;;;;;;;18.70;5.82;;;13.50;99.90;;;;;;5111688;28;20114;-68
2023/10/05 01:50:19;;;;;;;20.20;6.15;;;13.50;99.90;;;;;;5111246;28;20019;-69
2023/10/05 01:52:51;;;;;;;14.57;5.22;;;13.40;99.90;;;;;;5111035;28;20055;-69
2023/10/05 01:55:18;;;;;;;14.85;5.50;;;13.40;99.90;;;;;;5110935;28;20028;-69
2023/10/05 01:57:44;;;;;;;17.92;5.30;;;13.40;99.90;;;;;;5111520;28;20031;-69
2023/10/05 02:00:14;;;;;;;14.57;4.93;;;13.30;99.90;;;;;;5110778;28;20477;-69
2023/10/05 02:02:42;;;;;;;22.67;5.10;;;13.30;99.90;;;;;;5111098;28;20024;-69
2023/10/05 02:05:09;;;;;;;15.55;4.93;;;13.40;99.90;;;;;;5111321;28;20026;-68
2023/10/05 02:07:36;;;;;;;10.60;4.30;;;13.40;99.90;;;;;;5110988;28;20020;-69
2023/10/05 02:10:09;;;;;;;16.35;5.63;;;13.40;99.90;;;;;;5111221;28;20020;-69
2023/10/05 02:12:35;;;;;;;16.73;4.88;;;13.30;99.90;;;;;;5110935;28;20478;-69
2023/10/05 02:15:03;;;;;;;12.40;5.00;;;13.30;99.90;;;;;;5110756;28;20028;-69
2023/10/05 02:17:29;;;;;;;16.92;5.13;;;13.30;99.90;;;;;;5110848;28;20031;-69
2023/10/05 02:19:56;;;;;;;16.63;4.88;;;13.30;99.90;;;;;;5110892;28;20126;-68
2023/10/05 02:22:22;;;;;;;15.07;5.25;;;13.30;99.90;;;;;;5109836;28;20036;-69
2023/10/05 02:24:51;;;;;;;16.10;5.05;;;13.30;99.90;;;;;;5110987;28;20539;-69
2023/10/05 02:27:17;;;;;;;10.30;4.53;;;13.30;99.90;;;;;;5110588;28;20024;-68
2023/10/05 02:29:45;;;;;;;12.65;4.97;;;13.20;99.90;;;;;;5110218;28;20024;-68
2023/10/05 02:32:14;;;;;;;17.80;5.07;;;13.20;99.90;;;;;;5108846;28;20066;-68
2023/10/05 02:34:44;;;;;;;15.18;4.78;;;13.20;99.90;;;;;;5096631;28;20367;-68
2023/10/05 02:37:12;;;;;;;11.80;4.63;;;13.20;99.90;;;;;;5096846;28;20024;-69
2023/10/05 02:39:39;;;;;;;16.25;4.90;;;13.30;99.90;;;;;;5096453;28;20096;-69
2023/10/05 02:42:06;;;;;;;12.57;4.90;;;13.20;99.90;;;;;;5096367;28;20027;-68
2023/10/05 02:44:35;;;;;;;14.98;4.68;;;13.20;99.90;;;;;;5096746;28;20051;-68
2023/10/05 02:47:02;;;;;;;13.48;4.60;;;13.20;99.90;;;;;;5096092;28;20023;-68
2023/10/05 02:49:28;;;;;;;13.15;4.80;;;13.20;99.90;;;;;;5096556;28;20457;-69
2023/10/05 02:51:54;;;;;;;14.38;4.85;;;13.30;99.90;;;;;;5096879;28;20024;-68
2023/10/05 02:54:22;;;;;;;15.57;5.30;;;13.20;99.90;;;;;;5096269;28;20024;-70
2023/10/05 02:56:48;;;;;;;13.75;4.70;;;13.30;99.90;;;;;;5095517;28;20024;-68
2023/10/05 02:59:15;;;;;;;16.48;4.88;;;13.30;99.90;;;;;;5096326;28;20073;-69
2023/10/05 03:01:43;;;;;;;18.92;4.63;;;13.30;99.90;;;;;;5096253;28;20028;-69
2023/10/05 03:04:21;;;;;;;11.77;4.25;;;13.30;99.90;;;;;;5096370;28;20024;-68
2023/10/05 03:06:48;;;;;;;15.65;4.13;;;13.30;99.90;;;;;;5096591;28;20331;-68
2023/10/05 03:09:14;;;;;;;17.15;5.53;;;13.30;99.90;;;;;;5096075;28;20048;-69
2023/10/05 03:11:42;;;;;;;8.57;4.15;;;13.30;99.90;;;;;;5095943;28;20071;-68
2023/10/05 03:14:10;;;;;;;11.75;4.10;;;13.30;99.90;;;;;;5095766;28;20027;-69
2023/10/05 03:16:43;;;;;;;11.10;4.25;;;13.30;99.90;;;;;;5096424;28;20386;-68
2023/10/05 03:19:14;;;;;;;;;;;13.30;99.90;;;;;;5095857;28;20020;-70
2023/10/05 03:21:40;;;;;;;13.73;4.93;;;13.30;99.90;;;;;;5095099;28;19916;-68
2023/10/05 03:24:13;;;;;;;16.38;5.32;;;13.30;99.90;;;;;;5096011;28;20031;-68
2023/10/05 03:26:39;;;;;;;13.98;5.43;;;13.30;99.90;;;;;;5095932;28;20362;-68
2023/10/05 03:29:06;;;;;;;15.05;4.90;;;13.30;99.90;;;;;;5095779;28;20028;-68
2023/10/05 03:31:36;;;;;;;11.35;4.18;;;13.30;99.90;;;;;;5095272;28;20028;-69
2023/10/05 03:34:02;;;;;;;14.88;4.20;;;13.30;99.90;;;;;;5095674;28;20051;-69
2023/10/05 03:36:32;;;;;;;14.00;4.90;;;13.20;99.90;;;;;;5095957;28;20036;-68
2023/10/05 03:38:57;;;;;;;15.50;4.63;;;13.20;99.90;;;;;;5095059;28;20028;-69
2023/10/05 03:41:26;;;;;;;12.85;4.55;;;13.20;99.90;;;;;;5095437;28;20027;-68
2023/10/05 03:43:55;;;;;;;13.10;4.22;;;13.20;99.90;;;;;;5095263;28;20107;-68
2023/10/05 03:46:22;;;;;;;12.15;4.25;;;13.10;99.90;;;;;;5094421;28;20028;-68
2023/10/05 03:48:48;;;;;;;11.98;4.35;;;13.10;99.90;;;;;;5095546;28;20119;-68
2023/10/05 03:51:15;;;;;;;14.75;4.22;;;13.10;99.90;;;;;;5095801;28;20426;-68
2023/10/05 03:53:43;;;;;;;18.33;4.68;;;13.20;99.90;;;;;;5095663;28;20020;-69
2023/10/05 03:56:12;;;;;;;11.95;4.63;;;13.10;99.90;;;;;;5095361;28;20031;-68
2023/10/05 03:58:39;;;;;;;19.25;4.95;;;13.10;99.90;;;;;;5095535;28;20027;-68
2023/10/05 04:01:06;;;;;;;15.93;4.65;;;13.00;99.90;;;;;;5095492;28;20115;-68
2023/10/05 04:03:33;;;;;;;13.55;4.70;;;13.10;99.90;;;;;;5095110;28;20024;-68
2023/10/05 04:05:59;;;;;;;16.15;5.20;;;13.10;99.90;;;;;;5095207;28;20466;-68
2023/10/05 04:08:27;;;;;;;12.55;4.22;;;13.10;99.90;;;;;;5095091;28;20031;-68
2023/10/05 04:10:54;;;;;;;17.38;5.03;;;13.10;99.90;;;;;;5094675;28;20024;-68
2023/10/05 04:13:22;;;;;;;12.13;4.82;;;13.10;99.90;;;;;;5095027;28;20059;-68
2023/10/05 04:15:47;;;;;;;16.20;4.70;;;13.00;99.90;;;;;;5094974;28;20115;-68
2023/10/05 04:18:15;;;;;;;17.35;4.43;;;13.10;99.90;;;;;;5094702;28;20119;-68
2023/10/05 04:20:43;;;;;;;16.60;5.13;;;13.10;99.90;;;;;;5094572;28;20034;-68
2023/10/05 04:23:14;;;;;;;14.38;4.32;;;13.10;99.90;;;;;;5095159;28;20492;-69
2023/10/05 04:25:40;;;;;;;13.70;4.70;;;13.10;99.90;;;;;;5094686;28;20024;-68
2023/10/05 04:28:05;;;;;;;14.35;4.28;;;13.00;99.90;;;;;;5094629;28;20035;-69
2023/10/05 04:30:33;;;;;;;15.32;4.68;;;13.00;99.90;;;;;;5095001;28;20024;-69
2023/10/05 04:32:59;;;;;;;13.65;4.75;;;13.00;99.90;;;;;;5094641;28;20107;-68
2023/10/05 04:35:28;;;;;;;16.45;5.40;;;13.00;99.90;;;;;;5094609;28;20539;-69
2023/10/05 04:37:55;;;;;;;17.83;5.05;;;13.00;99.90;;;;;;5094677;28;20090;-68
2023/10/05 04:40:23;;;;;;;17.23;4.68;;;13.00;99.90;;;;;;5094274;28;20016;-68
2023/10/05 04:42:50;;;;;;;15.18;5.10;;;13.00;99.90;;;;;;5094040;28;20528;-69
2023/10/05 04:45:17;;;;;;;17.50;4.88;;;13.00;99.90;;;;;;5094514;28;20024;-68
2023/10/05 04:47:42;;;;;;;19.35;4.85;;;13.00;99.90;;;;;;5094065;28;20020;-68
2023/10/05 04:50:13;;;;;;;15.00;4.38;;;13.00;99.90;;;;;;5094356;28;20382;-68
2023/10/05 04:52:39;;;;;;;16.55;4.47;;;13.00;99.90;;;;;;5094343;28;20024;-68
2023/10/05 04:55:41;;;;;;;16.73;5.72;;;13.00;99.90;;;;;;5094280;28;20028;-68
2023/10/05 04:57:55;;;;;;;19.80;4.43;;;13.00;99.90;;;;;;5093511;28;20024;-68
2023/10/05 05:06:00;;;;;;;17.50;5.63;;;13.00;99.90;;;;;;5093375;28;20393;-68
2023/10/05 05:08:26;;;;;;;12.75;4.75;;;13.00;99.90;;;;;;5094017;28;20033;-68
2023/10/05 05:10:52;;;;;;;13.85;4.07;;;13.00;99.90;;;;;;5093739;28;20036;-69
2023/10/05 05:13:20;;;;;;;15.68;4.90;;;13.00;99.90;;;;;;5093940;28;20124;-68
2023/10/05 05:15:46;;;;;;;15.65;4.55;;;13.00;99.90;;;;;;5093908;28;20033;-68
2023/10/05 05:18:15;;;;;;;17.27;4.70;;;13.00;99.90;;;;;;5093631;28;20031;-68
2023/10/05 05:20:42;;;;;;;13.75;4.55;;;13.00;99.90;;;;;;5093379;28;20470;-69
2023/10/05 05:23:08;;;;;;;15.23;4.50;;;13.00;99.90;;;;;;5094288;28;20027;-68
2023/10/05 05:25:33;;;;;;;21.02;5.68;;;13.00;99.90;;;;;;5093510;28;20474;-68
2023/10/05 05:28:01;;;;;;;14.40;4.68;;;13.00;99.90;;;;;;5094162;28;20043;-68
2023/10/05 05:30:29;;;;;;;16.92;4.88;;;13.00;99.90;;;;;;5093750;28;20020;-68
2023/10/05 05:32:54;;;;;;;11.63;4.35;;;13.00;99.90;;;;;;5093875;28;20055;-68
2023/10/05 05:35:20;;;;;;;18.77;5.07;;;13.00;99.90;;;;;;5093737;28;20100;-68
2023/10/05 05:37:46;;;;;;;12.73;4.55;;;13.00;99.90;;;;;;5093208;28;20036;-68
2023/10/05 05:40:12;;;;;;;19.13;5.85;;;12.90;99.90;;;;;;5093097;28;20028;-69
2023/10/05 05:42:40;;;;;;;14.68;4.40;;;13.00;99.90;;;;;;5093725;28;20040;-72
2023/10/05 05:45:15;;;;;;;17.50;4.53;;;13.00;99.90;;;;;;5093365;28;20477;-68
2023/10/05 05:47:41;;;;;;;14.50;5.00;;;13.00;99.90;;;;;;5093595;28;20058;-68
2023/10/05 05:50:08;;;;;;;14.50;4.50;;;13.00;99.90;;;;;;5092875;28;20074;-68
2023/10/05 05:52:34;;;;;;;16.92;5.15;;;13.00;99.90;;;;;;5093585;28;20024;-68
2023/10/05 05:55:09;;;;;;;12.57;4.68;;;13.00;99.90;;;;;;5093545;28;20107;-69
2023/10/05 05:57:35;;;;;;;20.95;5.13;;;13.00;99.90;;;;;;5093555;28;20493;-68
2023/10/05 06:00:10;;;;;;;16.92;4.70;;;13.00;99.90;;;;;;5093642;28;20036;-68
2023/10/05 06:02:39;;;;;;;16.60;4.75;;;13.00;99.90;;;;;;5093677;28;20027;-68
2023/10/05 06:05:08;;;;;;;15.93;4.75;;;13.00;99.90;;;;;;5093465;28;20056;-68
2023/10/05 06:07:35;;;;;;;14.95;5.10;;;13.00;99.90;;;;;;5093846;28;20089;-68
2023/10/05 06:10:02;;;;;;;18.00;4.50;;;13.10;99.90;;;;;;5097567;28;20498;-68
2023/10/05 06:12:27;;;;;;;13.73;4.93;;;13.00;99.90;;;;;;5096904;28;20115;-68
2023/10/05 06:14:53;;;;;;;17.27;4.70;;;13.10;99.90;;;;;;5096627;28;20165;-68
2023/10/05 06:17:19;;;;;;;20.52;5.32;;;13.00;99.90;;;;;;5097506;28;20110;-68
2023/10/05 06:19:47;;;;;;;15.38;5.20;;;13.10;99.90;;;;;;5096997;28;20024;-68
2023/10/05 06:22:14;;;;;;;15.18;4.30;;;13.10;99.90;;;;;;5096201;28;20485;-69
2023/10/05 06:24:42;;;;;;;9.70;4.93;;;13.10;99.90;;;;;;5097320;28;20477;-69
2023/10/05 06:27:08;;;;;;;17.13;4.57;;;13.10;99.90;;;;;;5097183;28;20157;-68
2023/10/05 06:29:35;;;;;;;18.25;5.10;;;13.10;99.90;;;;;;5096878;28;20445;-69
2023/10/05 06:32:00;;;;;;;16.55;5.18;;;13.20;99.90;;;;;;5096833;28;20035;-69
2023/10/05 06:34:26;;;;;;;12.20;4.97;;;13.20;99.90;;;;;;5096772;28;20039;-68
2023/10/05 06:36:52;;;;;;;16.63;5.07;;;13.20;99.90;;;;;;5097749;28;20549;-68
2023/10/05 06:39:18;;;;;;;12.15;4.65;;;13.20;99.90;;;;;;5109839;28;20020;-68
2023/10/05 06:41:45;;;;;;;16.45;5.05;;;13.20;99.90;;;;;;5095402;28;20402;-68
2023/10/05 06:44:11;;;;;;;14.43;4.30;;;13.30;99.90;;;;;;5095561;28;20085;-62
2023/10/05 06:46:40;;;;;;;18.92;4.88;;;13.30;99.90;;;;;;5095932;28;20367;-62
2023/10/05 06:49:05;;;;;;;15.50;4.97;;;13.30;99.90;;;;;;5095585;28;20516;-80
2023/10/05 06:51:31;;;;;;;13.23;4.25;;;13.30;99.90;;;;;;5095408;28;20032;-74
2023/10/05 06:53:58;;;;;;;15.77;4.47;;;13.40;99.90;;;;;;5095970;28;20081;-80
2023/10/05 06:56:24;;;;;;;15.43;4.28;;;13.40;99.90;;;;;;5095515;28;20070;-62
2023/10/05 06:58:50;;;;;;;14.90;5.05;;;13.50;99.90;;;;;;5095732;28;20428;-62
2023/10/05 07:01:20;;;;;;;19.25;4.45;;;13.50;99.90;;;;;;5096139;28;20084;-62
2023/10/05 07:03:52;;;;;;;12.43;4.68;;;13.50;99.90;;;;;;5084640;28;20028;-62
2023/10/05 07:06:19;;;;;;;11.75;4.85;;;13.50;99.90;;;;;;5081110;28;20028;-67
2023/10/05 07:08:46;;;;;;;16.83;4.68;;;13.60;99.90;;;;;;5082405;28;20397;-62
2023/10/05 07:11:11;;;;;;;15.98;5.00;;;13.60;99.90;;;;;;5091701;28;20024;-62
2023/10/05 07:13:37;;;;;;;13.00;4.90;;;13.60;99.90;;;;;;5092952;28;20036;-62
2023/10/05 07:16:03;;;;;;;13.95;4.82;;;13.70;99.90;;;;;;5079941;28;20493;-62
2023/10/05 07:18:28;;;;;;;15.48;4.65;;;13.80;99.90;;;;;;5084146;28;20024;-68
2023/10/05 07:20:54;;;;;;;14.43;5.18;;;13.90;99.90;;;;;;5085878;28;20021;-62
2023/10/05 07:23:20;;;;;;;14.60;5.15;;;13.80;99.90;;;;;;5093217;28;20028;-64
2023/10/05 07:25:45;;;;;;;16.10;4.93;;;13.80;99.90;;;;;;5093079;28;20047;-62
2023/10/05 07:28:14;;;;;;;18.58;4.72;;;13.80;99.90;;;;;;5089676;28;20024;-62
2023/10/05 07:30:43;;;;;;;21.38;5.32;;;13.70;99.90;;;;;;5087987;28;20466;-62
2023/10/05 07:33:08;;;;;;;17.63;4.95;;;13.80;99.90;;;;;;5092446;28;20024;-62
2023/10/05 07:35:34;;;;;;;15.63;5.03;;;13.90;99.90;;;;;;5087761;28;20389;-62
2023/10/05 07:38:00;;;;;;;17.02;5.70;;;14.10;99.90;;;;;;5079619;28;20501;-62
2023/10/05 07:40:25;;;;;;;14.55;5.03;;;14.10;99.90;;;;;;5094517;28;20043;-62
2023/10/05 07:42:51;;;;;;;17.45;5.47;;;14.20;99.90;;;;;;5093142;28;20471;-62
2023/10/05 07:45:17;;;;;;;10.68;4.72;;;14.20;99.90;;;;;;5090995;28;20024;-66
2023/10/05 07:47:44;;;;;;;13.80;4.95;;;14.30;99.90;;;;;;5076380;28;20032;-67
2023/10/05 07:50:11;;;;;;;15.70;4.90;;;14.30;99.90;;;;;;5087724;28;20028;-66
2023/10/05 07:52:38;;;;;;;14.20;4.80;;;14.40;99.90;;;;;;5090474;28;20028;-66
2023/10/05 07:55:06;;;;;;;14.32;5.38;;;14.40;99.90;;;;;;5082872;28;20024;-67
2023/10/05 07:57:31;;;;;;;17.38;5.05;;;14.60;98.30;;;;;;5093484;28;20032;-67
2023/10/05 07:59:57;;;;;;;17.17;5.40;;;14.60;95.00;;;;;;5088703;28;20028;-67
2023/10/05 08:02:22;;;;;;;23.65;6.13;;;14.50;99.20;;;;;;5095749;28;20059;-67
2023/10/05 08:04:48;;;;;;;19.83;5.43;;;14.50;99.90;;;;;;5092701;28;20468;-69
2023/10/05 08:07:15;;;;;;;15.10;4.88;;;14.50;99.90;;;;;;5093938;28;20077;-67
2023/10/05 08:09:42;;;;;;;14.77;4.78;;;14.60;98.70;;;;;;5076737;28;20031;-67
2023/10/05 08:12:08;;;;;;;16.65;5.43;;;14.50;99.90;;;;;;5082982;28;20077;-66
2023/10/05 08:14:34;;;;;;;17.55;6.07;;;14.50;90.80;;;;;;5090997;28;20031;-67
2023/10/05 08:16:59;;;;;;;13.77;4.18;;;14.90;77.80;;;;;;5092741;28;20568;-66
2023/10/05 08:19:26;;;;;;;19.00;4.85;;;15.20;58.40;;;;;;5092225;28;20039;-66
2023/10/05 08:21:53;;;;;;;20.15;4.80;;;15.50;42.60;;;;;;5077420;28;20045;-66
2023/10/05 08:24:19;;;;;;;13.23;4.57;;;15.80;15.00;;;;;;5080912;28;20494;-67
2023/10/05 08:26:45;;;;;;;13.98;5.72;;;16.00;1.00;;;;;;5074479;28;20021;-67
2023/10/05 08:29:11;;;;;;;15.10;5.05;;;15.80;1.00;;;;;;5082892;28;20034;-66
2023/10/05 08:31:37;;;;;;;13.10;4.80;;;15.90;1.00;;;;;;5085757;28;20508;-65
2023/10/05 08:34:03;;;;;;;18.65;4.95;;;16.30;1.00;;;;;;5076690;28;20052;-67
2023/10/05 08:36:31;;;;;;;12.55;5.07;;;16.70;1.00;;;;;;5078759;28;20470;-67
2023/10/05 08:38:56;;;;;;;16.17;5.00;;;16.40;1.00;;;;;;5087964;28;20045;-66
2023/10/05 08:41:31;;;;;;;14.70;5.10;;;16.20;1.00;;;;;;5082075;28;20029;-66
2023/10/05 08:44:06;;;;;;;14.95;4.57;;;16.10;1.00;;;;;;5079626;28;20135;-67
2023/10/05 08:46:40;;;;;;;17.58;4.85;;;16.30;1.00;;;;;;5087372;28;20168;-67
2023/10/05 08:49:07;;;;;;;14.07;4.80;;;16.60;1.00;;;;;;5086941;28;20112;-66
2023/10/05 08:51:35;;;;;;;16.85;5.25;;;16.40;1.00;;;;;;5091980;28;20036;-67
2023/10/05 08:54:02;;;;;;;12.77;5.18;;;16.40;1.00;;;;;;5092255;28;20095;-66
2023/10/05 08:56:31;;;;;;;13.43;4.65;;;16.50;1.00;;;;;;5082972;28;20028;-69
2023/10/05 08:58:59;;;;;;;18.67;5.32;;;16.40;1.00;;;;;;5085076;28;20032;-70
2023/10/05 09:01:31;;;;;;;23.58;5.50;;;16.40;1.00;;;;;;5077845;28;20070;-75
2023/10/05 09:04:01;;;;;;;12.73;4.97;;;16.30;1.00;;;;;;5091935;28;20028;-69
2023/10/05 09:06:27;;;;;;;16.63;5.25;;;16.50;1.00;;;;;;5084710;28;20435;-69
2023/10/05 09:08:57;;;;;;;15.75;5.40;;;16.60;1.00;;;;;;5090340;28;20067;-69
2023/10/05 09:11:31;;;;;;;11.82;4.82;;;16.50;1.00;;;;;;5091090;28;20039;-69
2023/10/05 09:14:12;;;;;;;14.23;5.57;;;16.70;1.00;;;;;;5086428;28;20044;-68
2023/10/05 09:16:41;;;;;;;9.88;4.68;;;16.80;1.00;;;;;;5087371;28;20028;-69
2023/10/05 09:19:08;;;;;;;15.68;5.82;;;16.70;1.00;;;;;;5091135;28;20054;-69
2023/10/05 09:21:50;;;;;;;18.13;6.90;;;16.80;1.00;;;;;;5092748;28;20036;-69
2023/10/05 09:24:25;;;;;;;14.77;5.20;;;16.70;1.00;;;;;;5091557;28;20032;-69
2023/10/05 09:26:56;;;;;;;14.13;4.82;;;16.60;1.00;;;;;;5085481;28;20032;-69
2023/10/05 09:29:30;;;;;;;13.52;5.07;;;16.50;1.00;;;;;;5082118;28;20140;-69
2023/10/05 09:31:58;;;;;;;15.13;5.45;;;16.60;1.00;;;;;;5081700;28;20036;-70
2023/10/05 09:34:43;;;;;;;19.15;4.95;;;16.80;1.00;;;;;;5074840;28;20029;-69
2023/10/05 09:37:10;;;;;;;11.95;4.97;;;16.60;1.00;;;;;;5077591;28;20035;-69
2023/10/05 09:40:15;;;;;;;17.58;5.30;;;16.60;1.00;;;;;;5079952;28;20028;-70
2023/10/05 09:42:25;;;;;;;18.60;5.00;;;16.70;1.00;;;;;;5077182;28;20043;-70
2023/10/05 09:44:57;;;;;;;13.25;4.63;;;16.70;1.00;;;;;;5079970;28;20028;-69
2023/10/05 09:47:32;;;;;;;17.37;4.63;;;16.80;1.00;;;;;;5080346;28;20027;-69
2023/10/05 09:50:00;;;;;;;12.63;5.03;;;16.90;1.00;;;;;;5089596;28;20530;-69
2023/10/05 09:53:06;;;;;;;15.90;4.57;;;17.20;1.00;;;;;;5080135;28;20107;-69
2023/10/05 09:55:13;;;;;;;16.23;4.18;;;17.30;1.00;;;;;;5085752;28;20032;-70
2023/10/05 09:57:41;;;;;;;14.65;4.68;;;17.00;1.00;;;;;;5077130;28;20043;-70
2023/10/05 10:00:11;;;;;;;19.30;5.60;;;17.10;1.00;;;;;;5084266;28;20031;-70
2023/10/05 10:02:39;;;;;;;15.18;4.80;;;16.90;1.00;;;;;;5082097;28;20040;-70
2023/10/05 10:05:25;;;;;;;15.90;5.13;;;17.00;1.00;;;;;;5091797;28;20032;-71
2023/10/05 10:07:54;;;;;;;17.23;4.82;;;16.90;1.00;;;;;;5086454;28;20028;-71
2023/10/05 10:10:20;;;;;;;16.23;5.10;;;16.70;1.00;;;;;;5094415;28;20049;-71
2023/10/05 10:12:51;;;;;;;15.15;5.55;;;16.80;1.00;;;;;;5094911;28;20036;-71
2023/10/05 10:15:33;;;;;;;23.33;7.13;;;16.90;1.00;;;;;;5087486;28;20567;-71
2023/10/05 10:18:13;;;;;;;13.57;5.47;;;16.80;1.00;;;;;;5093805;28;20024;-71
2023/10/05 10:20:39;;;;;;;15.60;5.28;;;17.00;1.00;;;;;;5093243;28;20120;-70
2023/10/05 10:23:13;;;;;;;13.57;4.78;;;17.00;1.00;;;;;;5095716;28;20378;-70
2023/10/05 10:25:38;;;;;;;16.55;5.68;;;16.80;1.00;;;;;;5083668;28;20027;-71
2023/10/05 10:31:11;;;;;;;19.98;5.53;;;16.90;1.00;;;;;;5101546;27;20962;-68
2023/10/05 10:33:37;;;;;;;18.48;5.70;;;16.80;1.00;;;;;;5088407;28;20120;-69
2023/10/05 10:36:04;;;;;;;15.73;5.43;;;16.80;1.00;;;;;;5090268;28;20534;-69
2023/10/05 10:38:30;;;;;;;17.65;5.25;;;17.00;1.00;;;;;;5087530;28;20032;-69
2023/10/05 10:41:07;;;;;;;16.20;5.00;;;17.00;1.00;;;;;;5087936;28;20401;-68
2023/10/05 10:43:33;;;;;;;12.27;5.65;;;16.90;1.00;;;;;;5090141;28;20050;-68
2023/10/05 10:46:00;;;;;;;15.85;5.90;;;16.80;1.00;;;;;;5079272;28;20028;-69
2023/10/05 10:48:29;;;;;;;9.88;4.90;;;16.80;1.00;;;;;;5077171;28;20027;-68
2023/10/05 10:50:59;;;;;;;13.30;5.53;;;17.00;1.00;;;;;;5084468;28;20024;-68
2023/10/05 10:53:30;;;;;;;22.05;5.95;;;17.00;1.00;;;;;;5077038;28;20074;-68
2023/10/05 10:55:58;;;;;;;19.55;5.38;;;17.10;1.00;;;;;;5088041;28;20024;-68
2023/10/05 10:58:26;;;;;;;16.63;5.28;;;17.30;1.00;;;;;;5084391;28;20063;-69
2023/10/05 11:00:59;;;;;;;17.55;5.55;;;17.40;1.00;;;;;;5084597;28;20028;-69
2023/10/05 11:03:27;;;;;;;20.02;6.03;;;17.20;1.00;;;;;;5087054;28;20024;-68
2023/10/05 11:05:54;;;;;;;19.90;5.70;;;17.20;1.00;;;;;;5083362;28;20024;-69
2023/10/05 11:08:20;;;;;;;14.23;5.57;;;17.00;1.00;;;;;;5084743;28;20035;-68
2023/10/05 11:10:59;;;;;;;14.57;5.25;;;17.10;1.00;;;;;;5087666;28;20038;-68
2023/10/05 11:13:25;;;;;;;17.48;4.97;;;17.20;1.00;;;;;;5086541;28;20032;-72
2023/10/05 11:18:34;;;;;;;15.18;5.25;;;17.80;1.00;;;;;;5064904;22;20420;-74
2023/10/05 11:21:25;;;;;;;14.65;4.55;;;17.90;1.00;;;;;;5039574;28;20045;-72
2023/10/05 11:23:56;;;;;;;14.15;4.80;;;18.10;99.90;;;;;;5025499;28;20468;-73
2023/10/05 11:29:17;;;;;;;17.70;4.82;;;18.70;99.90;;;;;;5026639;28;20030;-74
2023/10/05 11:31:42;;;;;;;13.25;4.30;;;18.80;99.90;;;;;;5030176;28;20061;-75
2023/10/05 11:34:11;;;;;;;13.95;4.55;;;18.90;93.90;;;;;;5019020;28;20061;-75
2023/10/05 11:36:42;;;;;;;20.90;4.72;;;18.70;99.90;;;;;;5028068;28;20121;-73
2023/10/05 11:39:21;;;;;;;20.33;4.55;;;18.70;99.90;;;;;;5025464;28;20033;-72
2023/10/05 11:41:48;;;;;;;14.48;3.58;;;18.70;99.90;;;;;;5028990;28;20024;-73
2023/10/05 11:44:20;;;;;;;14.73;4.15;;;18.90;99.90;;;;;;5034756;28;20021;-73
2023/10/05 11:46:46;;;;;;;13.60;4.43;;;19.30;1.00;;;;;;5029927;28;20040;-75
2023/10/05 11:49:13;;;;;;;7.72;3.30;;;19.20;1.00;;;;;;5026056;28;20034;-75
2023/10/05 11:51:42;;;;;;;12.90;4.30;;;19.20;1.00;;;;;;5021459;28;20519;-73
2023/10/05 11:54:09;;;;;;;13.55;4.15;;;18.70;1.00;;;;;;5027313;28;20083;-72
2023/10/05 11:56:34;;;;;;;12.05;3.78;;;18.50;99.90;;;;;;5036303;28;20032;-73
2023/10/05 11:59:00;;;;;;;12.55;3.78;;;18.50;99.90;;;;;;5024800;28;20450;-72
2023/10/05 12:01:27;;;;;;;11.85;3.45;;;18.60;62.00;;;;;;5031771;28;20129;-72
2023/10/05 12:03:54;;;;;;;12.80;3.95;;;18.30;99.90;;;;;;5030712;28;20030;-74
2023/10/05 12:06:25;;;;;;;10.43;4.20;;;18.20;99.90;;;;;;5028715;28;20480;-72
2023/10/05 12:08:53;;;;;;;11.93;4.05;;;18.10;99.90;;;;;;5029545;28;20022;-74
2023/10/05 12:11:23;;;;;;;13.50;4.35;;;17.90;99.90;;;;;;5031896;28;20030;-73
2023/10/05 12:13:50;;;;;;;16.58;4.05;;;18.30;99.90;;;;;;5034953;28;20017;-73
2023/10/05 12:16:16;;;;;;;14.60;4.32;;;18.40;99.90;;;;;;5027014;28;20160;-73
2023/10/05 12:18:42;;;;;;;11.68;4.28;;;18.60;1.00;;;;;;5028956;28;20124;-75
2023/10/05 12:21:09;;;;;;;14.32;4.28;;;18.50;1.00;;;;;;5044745;28;20029;-75
2023/10/05 12:23:35;;;;;;;12.23;4.43;;;18.50;1.00;;;;;;5040993;28;20159;-75
2023/10/05 12:26:04;;;;;;;9.93;4.40;;;18.40;95.40;;;;;;5028694;28;20084;-74
2023/10/05 12:28:30;;;;;;;13.40;4.13;;;18.30;99.90;;;;;;5035706;28;20030;-75
2023/10/05 12:30:55;;;;;;;9.55;4.07;;;18.40;99.90;;;;;;5016094;28;20041;-73
2023/10/05 12:33:21;;;;;;;11.75;4.60;;;18.50;99.90;;;;;;5018005;28;20034;-74
2023/10/05 12:35:52;;;;;;;11.70;4.45;;;18.40;99.90;;;;;;5015756;28;20057;-73
2023/10/05 12:38:18;;;;;;;12.55;4.35;;;18.70;99.90;;;;;;5015429;28;20045;-73
2023/10/05 12:40:47;;;;;;;12.80;4.75;;;18.70;1.00;;;;;;5015103;28;20112;-75
2023/10/05 12:43:16;;;;;;;10.05;4.03;;;18.80;1.00;;;;;;5017419;28;20488;-72
2023/10/05 12:45:43;;;;;;;8.60;4.32;;;18.80;1.00;;;;;;5010402;28;20022;-73
2023/10/05 12:48:11;;;;;;;14.65;4.53;;;18.70;99.90;;;;;;5010878;28;20069;-72
2023/10/05 12:50:37;;;;;;;12.38;4.43;;;18.60;99.90;;;;;;5016683;28;20049;-73
2023/10/05 12:53:03;;;;;;;10.35;4.03;;;18.50;1.00;;;;;;5015404;28;20034;-73
2023/10/05 12:55:29;;;;;;;11.93;4.28;;;18.60;1.00;;;;;;5013022;28;20531;-73
2023/10/05 12:57:55;;;;;;;13.02;4.45;;;18.40;1.00;;;;;;5008888;28;20117;-73
2023/10/05 13:00:26;;;;;;;9.55;3.83;;;18.30;1.00;;;;;;5016994;28;20030;-73
2023/10/05 13:02:53;;;;;;;12.88;3.78;;;18.40;57.90;;;;;;5013092;28;20030;-74
2023/10/05 13:05:22;;;;;;;12.07;3.83;;;18.40;1.00;;;;;;5014286;28;20029;-73
2023/10/05 13:07:49;;;;;;;11.48;4.10;;;18.30;1.00;;;;;;5013557;28;20065;-74
2023/10/05 13:10:21;;;;;;;8.90;3.50;;;18.30;1.00;;;;;;5012041;28;20022;-73
2023/10/05 13:12:49;;;;;;;13.67;4.27;;;18.30;1.00;;;;;;5007814;28;20022;-72
2023/10/05 13:15:15;;;;;;;14.77;4.05;;;18.20;95.40;;;;;;5014427;28;20835;-74